createdAt,value
2019-03-21T00:01:56.310Z,5.75
2019-03-21T00:04:27.188Z,5.44
2019-03-21T00:06:57.973Z,5.64
2019-03-21T00:09:28.809Z,5.61
2019-03-21T00:12:04.069Z,5.63
2019-03-21T00:14:53.935Z,5.98
2019-03-21T00:17:27.903Z,6.04
2019-03-21T00:19:58.867Z,5.92
2019-03-21T00:22:29.610Z,5.97
2019-03-21T00:25:00.386Z,5.95
2019-03-21T00:27:31.388Z,5.93
2019-03-21T00:30:02.241Z,5.72
2019-03-21T00:32:33.367Z,5.49
2019-03-21T00:35:04.180Z,5.60
2019-03-21T00:37:34.916Z,5.71
2019-03-21T00:40:06.685Z,5.80
2019-03-21T00:42:38.121Z,5.91
2019-03-21T00:45:10.157Z,5.85
2019-03-21T00:47:41.920Z,5.85
2019-03-21T00:50:14.661Z,5.76
2019-03-21T00:52:48.072Z,5.83
2019-03-21T00:55:18.880Z,5.77
2019-03-21T00:57:49.860Z,6.01
2019-03-21T01:00:27.195Z,5.99
2019-03-21T01:02:58.067Z,6.06
2019-03-21T01:05:30.217Z,6.09
2019-03-21T01:08:01.194Z,6.00
2019-03-21T01:10:32.168Z,5.98
2019-03-21T01:13:03.181Z,6.03
2019-03-21T01:15:36.005Z,6.10
2019-03-21T01:18:06.851Z,6.06
2019-03-21T01:20:37.644Z,6.10
2019-03-21T01:23:08.418Z,6.13
2019-03-21T01:25:42.512Z,6.12
2019-03-21T01:28:14.541Z,6.08
2019-03-21T01:30:45.426Z,6.09
2019-03-21T01:33:16.227Z,6.09
2019-03-21T01:35:47.026Z,6.12
2019-03-21T01:38:17.834Z,6.09
2019-03-21T01:40:49.451Z,6.18
2019-03-21T01:43:20.722Z,6.14
2019-03-21T01:45:51.587Z,6.24
2019-03-21T01:48:22.453Z,6.13
2019-03-21T01:50:53.282Z,6.31
2019-03-21T01:53:24.050Z,6.26
2019-03-21T01:55:54.829Z,6.26
2019-03-21T01:58:25.929Z,6.40
2019-03-21T02:00:56.779Z,6.36
2019-03-21T02:03:27.598Z,6.35
2019-03-21T02:05:58.381Z,6.34
2019-03-21T02:08:29.157Z,6.44
2019-03-21T02:10:59.969Z,6.70
2019-03-21T02:13:31.880Z,6.58
2019-03-21T02:16:03.108Z,6.45
2019-03-21T02:18:33.918Z,6.42
2019-03-21T02:21:04.773Z,6.39
2019-03-21T02:23:35.698Z,6.51
2019-03-21T02:26:06.503Z,6.56
2019-03-21T02:28:37.538Z,6.52
2019-03-21T02:31:08.478Z,6.47
2019-03-21T02:33:39.426Z,6.38
2019-03-21T02:36:10.228Z,6.31
2019-03-21T02:38:41.024Z,6.25
2019-03-21T02:41:12.082Z,6.28
2019-03-21T02:43:43.582Z,6.23
2019-03-21T02:46:14.966Z,6.29
2019-03-21T02:48:45.769Z,6.33
2019-03-21T02:51:16.617Z,6.37
2019-03-21T02:53:47.474Z,6.38
2019-03-21T02:56:19.750Z,6.42
2019-03-21T02:58:50.674Z,6.37
2019-03-21T03:01:21.915Z,6.20
2019-03-21T03:03:52.844Z,6.27
2019-03-21T03:06:23.659Z,6.20
2019-03-21T03:08:54.572Z,6.28
2019-03-21T03:11:25.468Z,6.28
2019-03-21T03:13:57.289Z,6.30
2019-03-21T03:16:28.120Z,6.30
2019-03-21T03:18:59.972Z,6.23
2019-03-21T03:21:30.840Z,6.15
2019-03-21T03:24:01.675Z,6.12
2019-03-21T03:26:32.438Z,6.16
2019-03-21T03:29:03.457Z,6.16
2019-03-21T03:31:36.986Z,6.19
2019-03-21T03:34:07.893Z,6.16
2019-03-21T03:36:38.690Z,6.14
2019-03-21T03:39:09.852Z,6.10
2019-03-21T03:41:40.710Z,5.99
2019-03-21T03:44:11.830Z,5.87
2019-03-21T03:46:42.567Z,5.78
2019-03-21T03:49:13.564Z,5.74
2019-03-21T03:51:44.620Z,5.92
2019-03-21T03:54:15.623Z,6.03
2019-03-21T03:56:48.042Z,5.92
2019-03-21T03:59:19.046Z,5.73
2019-03-21T04:01:49.784Z,5.65
2019-03-21T04:04:20.685Z,5.65
2019-03-21T04:06:51.509Z,5.72
2019-03-21T04:09:22.385Z,5.65
2019-03-21T04:11:53.526Z,5.63
2019-03-21T04:14:24.370Z,5.68
2019-03-21T04:16:55.110Z,5.65
2019-03-21T04:19:25.915Z,5.81
2019-03-21T04:21:58.710Z,5.84
2019-03-21T04:24:30.677Z,5.76
2019-03-21T04:27:01.443Z,5.76
2019-03-21T04:29:32.628Z,5.79
2019-03-21T04:32:07.531Z,5.87
2019-03-21T04:34:39.151Z,5.95
2019-03-21T04:37:09.955Z,5.92
2019-03-21T04:39:40.952Z,5.69
2019-03-21T04:42:11.838Z,5.83
2019-03-21T04:44:44.446Z,5.53
2019-03-21T04:47:15.431Z,5.65
2019-03-21T04:49:46.188Z,5.63
2019-03-21T04:52:17.049Z,5.63
2019-03-21T04:54:47.796Z,5.81
2019-03-21T04:57:18.641Z,5.82
2019-03-21T04:59:49.560Z,5.77
2019-03-21T05:02:20.442Z,5.77
2019-03-21T05:04:51.414Z,5.59
2019-03-21T05:07:22.238Z,5.63
2019-03-21T05:09:53.088Z,5.65
2019-03-21T05:12:23.882Z,5.72
2019-03-21T05:14:54.702Z,5.80
2019-03-21T05:17:25.437Z,5.80
2019-03-21T05:19:56.244Z,5.66
2019-03-21T05:22:29.751Z,5.85
2019-03-21T05:25:00.496Z,5.71
2019-03-21T05:27:31.231Z,5.75
2019-03-21T05:30:02.236Z,5.80
2019-03-21T05:32:33.013Z,5.91
2019-03-21T05:35:03.917Z,5.92
2019-03-21T05:37:35.119Z,5.77
2019-03-21T05:40:07.512Z,5.70
2019-03-21T05:42:38.395Z,5.74
2019-03-21T05:45:11.031Z,5.76
2019-03-21T05:47:41.809Z,5.86
2019-03-21T05:50:15.061Z,5.87
2019-03-21T05:52:46.115Z,5.93
2019-03-21T05:55:16.878Z,6.08
2019-03-21T05:57:47.674Z,6.14
2019-03-21T06:00:25.127Z,6.27
2019-03-21T06:02:56.094Z,6.27
2019-03-21T06:05:26.961Z,6.26
2019-03-21T06:08:21.036Z,6.42
2019-03-21T06:10:52.182Z,6.35
2019-03-21T06:13:25.707Z,6.42
2019-03-21T06:16:06.382Z,6.53
2019-03-21T06:19:13.610Z,6.48
2019-03-21T06:21:51.099Z,6.43
2019-03-21T06:24:48.966Z,6.62
2019-03-21T06:27:39.923Z,6.70
2019-03-21T06:30:11.827Z,6.87
2019-03-21T06:32:42.693Z,6.99
2019-03-21T06:35:22.404Z,7.06
2019-03-21T06:37:54.980Z,7.15
2019-03-21T06:40:30.443Z,7.19
2019-03-21T06:43:01.699Z,6.89
2019-03-21T06:45:34.115Z,7.09
2019-03-21T06:48:05.024Z,7.53
2019-03-21T06:50:35.881Z,7.75
2019-03-21T06:53:07.795Z,8.21
2019-03-21T06:55:38.623Z,8.45
2019-03-21T06:58:09.430Z,8.91
2019-03-21T07:00:40.203Z,10.01
2019-03-21T07:03:11.058Z,12.13
2019-03-21T07:05:41.895Z,16.40
2019-03-21T07:08:12.707Z,17.03
2019-03-21T07:10:43.534Z,17.67
2019-03-21T07:13:14.565Z,18.44
2019-03-21T07:15:45.726Z,18.54
2019-03-21T07:18:16.600Z,19.70
2019-03-21T07:20:47.462Z,19.66
2019-03-21T07:23:18.326Z,19.40
2019-03-21T07:25:51.350Z,19.37
2019-03-21T07:28:22.562Z,19.25
2019-03-21T07:30:53.365Z,19.02
2019-03-21T07:33:24.341Z,19.23
2019-03-21T07:35:55.178Z,19.87
2019-03-21T07:38:26.334Z,20.78
2019-03-21T07:40:57.429Z,20.03
2019-03-21T07:43:28.222Z,19.56
2019-03-21T07:45:59.696Z,20.55
2019-03-21T07:48:30.944Z,19.68
2019-03-21T07:51:01.746Z,21.09
2019-03-21T07:53:33.086Z,20.69
2019-03-21T07:56:05.326Z,19.62
2019-03-21T07:58:37.157Z,19.41
2019-03-21T08:01:07.966Z,19.42
2019-03-21T08:03:38.831Z,20.00
2019-03-21T08:06:09.719Z,20.66
2019-03-21T08:08:40.602Z,20.49
2019-03-21T08:11:11.362Z,21.44
2019-03-21T08:13:42.181Z,19.18
2019-03-21T08:16:13.442Z,19.64
2019-03-21T08:18:44.397Z,20.86
2019-03-21T08:21:15.244Z,18.28
2019-03-21T08:23:46.072Z,20.68
2019-03-21T08:26:17.023Z,20.82
2019-03-21T08:28:47.946Z,19.66
2019-03-21T08:31:19.903Z,21.26
2019-03-21T08:33:50.946Z,18.53
2019-03-21T08:36:21.769Z,19.76
2019-03-21T08:38:54.237Z,21.21
2019-03-21T08:41:25.152Z,20.29
2019-03-21T08:43:56.307Z,21.75
2019-03-21T08:46:27.599Z,20.85
2019-03-21T08:48:58.704Z,20.38
2019-03-21T08:51:30.834Z,20.27
2019-03-21T08:54:08.676Z,21.68
2019-03-21T08:56:39.541Z,20.26
2019-03-21T08:59:12.525Z,19.79
2019-03-21T09:01:43.358Z,20.43
2019-03-21T09:04:15.218Z,18.31
2019-03-21T09:06:45.983Z,20.35
2019-03-21T09:09:16.947Z,20.95
2019-03-21T09:11:47.753Z,19.91
2019-03-21T09:14:18.999Z,21.00
2019-03-21T09:16:49.874Z,20.50
2019-03-21T09:19:22.213Z,19.56
2019-03-21T09:21:53.139Z,21.14
2019-03-21T09:24:25.191Z,19.86
2019-03-21T09:26:56.021Z,19.28
2019-03-21T09:29:26.871Z,19.45
2019-03-21T09:31:58.357Z,20.51
2019-03-21T09:34:29.647Z,19.18
2019-03-21T09:37:03.954Z,20.40
2019-03-21T09:39:36.359Z,19.02
2019-03-21T09:42:07.182Z,18.79
2019-03-21T09:44:38.134Z,21.27
2019-03-21T09:47:09.515Z,20.93
2019-03-21T09:49:40.544Z,20.84
2019-03-21T09:52:13.340Z,21.01
2019-03-21T09:54:44.289Z,21.12
2019-03-21T09:57:15.051Z,21.18
2019-03-21T09:59:47.711Z,19.99
2019-03-21T10:02:18.887Z,18.63
2019-03-21T10:04:49.724Z,19.07
2019-03-21T10:07:20.511Z,19.49
2019-03-21T10:09:51.520Z,20.22
2019-03-21T10:12:22.336Z,18.52
2019-03-21T10:14:54.984Z,18.45
2019-03-21T10:17:26.115Z,19.41
2019-03-21T10:19:57.889Z,21.01
2019-03-21T10:22:28.667Z,20.89
2019-03-21T10:25:00.360Z,21.28
2019-03-21T10:27:34.682Z,21.38
2019-03-21T10:30:06.224Z,18.68
2019-03-21T10:32:37.001Z,18.71
2019-03-21T10:35:09.679Z,20.81
2019-03-21T10:37:40.410Z,19.32
2019-03-21T10:40:11.295Z,18.84
2019-03-21T10:42:42.089Z,18.69
2019-03-21T10:45:14.195Z,18.43
2019-03-21T10:47:45.542Z,18.42
2019-03-21T10:50:20.140Z,18.86
2019-03-21T10:52:50.916Z,17.21
2019-03-21T10:55:21.772Z,18.14
2019-03-21T10:57:52.546Z,19.94
2019-03-21T11:00:23.477Z,20.16
2019-03-21T11:02:55.222Z,19.65
2019-03-21T11:05:26.649Z,20.12
2019-03-21T11:07:57.365Z,20.18
2019-03-21T11:10:28.299Z,19.14
2019-03-21T11:12:59.477Z,19.07
2019-03-21T11:15:30.903Z,18.34
2019-03-21T11:18:01.695Z,19.09
2019-03-21T11:20:34.199Z,18.65
2019-03-21T11:23:08.124Z,18.18
2019-03-21T11:25:38.903Z,18.03
2019-03-21T11:28:09.902Z,18.94
2019-03-21T11:30:42.551Z,19.24
2019-03-21T11:33:13.390Z,18.52
2019-03-21T11:35:44.360Z,18.43
2019-03-21T11:38:15.187Z,19.17
2019-03-21T11:40:48.434Z,19.25
2019-03-21T11:43:20.202Z,19.41
2019-03-21T11:45:51.112Z,19.49
2019-03-21T11:48:23.506Z,19.65
2019-03-21T11:50:54.698Z,18.86
2019-03-21T11:53:25.618Z,19.00
2019-03-21T11:55:56.410Z,18.25
2019-03-21T11:58:27.156Z,18.86
2019-03-21T12:00:58.088Z,18.44
2019-03-21T12:03:31.186Z,18.13
2019-03-21T12:06:02.072Z,18.78
2019-03-21T12:08:33.932Z,18.38
2019-03-21T12:11:08.715Z,18.80
2019-03-21T12:13:39.452Z,18.30
2019-03-21T12:16:12.510Z,18.31
2019-03-21T12:18:43.371Z,17.89
2019-03-21T12:21:14.973Z,18.05
2019-03-21T12:23:45.833Z,17.96
2019-03-21T12:26:18.978Z,16.99
2019-03-21T12:28:49.813Z,17.66
2019-03-21T12:31:20.749Z,17.67
2019-03-21T12:33:51.505Z,17.25
2019-03-21T12:36:23.041Z,18.47
2019-03-21T12:38:56.626Z,17.87
2019-03-21T12:41:27.588Z,17.41
2019-03-21T12:44:00.758Z,18.12
2019-03-21T12:46:32.002Z,18.28
2019-03-21T12:49:05.427Z,17.10
2019-03-21T12:51:37.478Z,17.13
2019-03-21T12:54:08.379Z,18.47
2019-03-21T12:56:39.294Z,17.58
2019-03-21T12:59:10.335Z,18.12
2019-03-21T13:01:41.184Z,18.13
2019-03-21T13:04:12.881Z,17.91
2019-03-21T13:06:43.706Z,18.02
2019-03-21T13:09:14.593Z,18.36
2019-03-21T13:11:45.574Z,18.62
2019-03-21T13:14:20.062Z,18.22
2019-03-21T13:16:50.923Z,17.71
2019-03-21T13:19:22.808Z,18.17
2019-03-21T13:21:53.675Z,18.63
2019-03-21T13:24:24.613Z,18.18
2019-03-21T13:26:55.860Z,18.59
2019-03-21T13:29:28.660Z,18.02
2019-03-21T13:32:00.683Z,17.44
2019-03-21T13:34:32.216Z,17.30
2019-03-21T13:37:03.364Z,17.76
2019-03-21T13:39:34.585Z,17.95
2019-03-21T13:42:06.860Z,17.72
2019-03-21T13:44:39.683Z,17.90
2019-03-21T13:47:10.906Z,17.90
2019-03-21T13:49:43.446Z,17.41
2019-03-21T13:52:14.775Z,17.19
2019-03-21T13:54:45.882Z,17.82
2019-03-21T13:57:16.772Z,17.76
2019-03-21T13:59:47.619Z,17.98
2019-03-21T14:02:18.524Z,17.32
2019-03-21T14:04:55.600Z,17.49
2019-03-21T14:07:27.563Z,17.43
2019-03-21T14:09:59.835Z,17.66
2019-03-21T14:12:30.667Z,17.86
2019-03-21T14:15:04.108Z,18.09
2019-03-21T14:17:35.119Z,18.23
2019-03-21T14:20:06.449Z,17.74
2019-03-21T14:22:40.662Z,17.23
2019-03-21T14:25:13.988Z,18.05
2019-03-21T14:27:44.902Z,18.32
2019-03-21T14:30:20.161Z,17.30
2019-03-21T14:32:53.144Z,16.79
2019-03-21T14:35:26.519Z,16.89
2019-03-21T14:37:57.502Z,17.37
2019-03-21T14:40:28.364Z,17.34
2019-03-21T14:42:59.358Z,16.95
2019-03-21T14:45:30.210Z,16.82
2019-03-21T14:48:04.541Z,17.29
2019-03-21T14:50:35.883Z,17.04
2019-03-21T14:53:06.740Z,16.94
2019-03-21T14:55:47.003Z,17.14
2019-03-21T14:58:14.639Z,16.82
2019-03-21T15:00:45.568Z,16.57
2019-03-21T15:03:18.036Z,16.93
2019-03-21T15:05:48.858Z,17.11
2019-03-21T15:08:20.101Z,16.86
2019-03-21T15:10:51.127Z,16.62
2019-03-21T15:13:22.059Z,17.05
2019-03-21T15:15:54.477Z,16.97
2019-03-21T15:18:26.217Z,17.06
2019-03-21T15:20:57.082Z,16.68
2019-03-21T15:23:39.920Z,16.54
2019-03-21T15:26:00.744Z,16.83
2019-03-21T15:28:31.666Z,17.11
2019-03-21T15:31:02.751Z,17.02
2019-03-21T15:33:34.652Z,16.93
2019-03-21T15:36:05.408Z,16.03
2019-03-21T15:38:37.414Z,16.56
2019-03-21T15:41:10.412Z,16.80
2019-03-21T15:43:41.411Z,16.26
2019-03-21T15:46:12.392Z,16.44
2019-03-21T15:48:44.328Z,16.06
2019-03-21T15:51:15.916Z,15.99
2019-03-21T15:53:53.482Z,16.20
2019-03-21T15:56:19.598Z,16.07
2019-03-21T15:58:50.419Z,16.36
2019-03-21T16:01:22.112Z,15.74
2019-03-21T16:03:52.966Z,16.17
2019-03-21T16:06:23.910Z,15.84
2019-03-21T16:08:54.950Z,16.10
2019-03-21T16:11:25.788Z,16.05
2019-03-21T16:13:56.783Z,16.07
2019-03-21T16:16:28.439Z,15.64
2019-03-21T16:18:59.297Z,16.06
2019-03-21T16:21:30.255Z,16.17
2019-03-21T16:24:05.480Z,15.75
2019-03-21T16:26:36.528Z,16.16
2019-03-21T16:29:06.536Z,16.18
2019-03-21T16:31:40.434Z,16.20
2019-03-21T16:34:11.309Z,16.07
2019-03-21T16:36:42.235Z,15.67
2019-03-21T16:39:13.258Z,15.94
2019-03-21T16:41:44.074Z,16.07
2019-03-21T16:44:14.930Z,16.04
2019-03-21T16:46:45.747Z,15.87
2019-03-21T16:49:16.599Z,15.87
2019-03-21T16:51:47.718Z,15.18
2019-03-21T16:54:18.702Z,15.49
2019-03-21T16:56:49.658Z,15.34
2019-03-21T16:59:20.553Z,15.57
2019-03-21T17:01:51.327Z,15.57
2019-03-21T17:04:22.267Z,15.26
2019-03-21T17:06:53.414Z,14.94
2019-03-21T17:09:24.406Z,14.94
2019-03-21T17:11:55.234Z,14.77
2019-03-21T17:14:26.497Z,14.72
2019-03-21T17:16:57.337Z,14.81
2019-03-21T17:19:28.683Z,14.56
2019-03-21T17:21:59.523Z,14.56
2019-03-21T17:24:30.391Z,14.65
2019-03-21T17:27:02.410Z,14.52
2019-03-21T17:29:33.429Z,14.38
2019-03-21T17:32:04.250Z,14.34
2019-03-21T17:34:35.054Z,14.47
2019-03-21T17:37:05.971Z,14.52
2019-03-21T17:39:37.095Z,14.51
2019-03-21T17:42:07.838Z,14.59
2019-03-21T17:44:38.692Z,14.42
2019-03-21T17:47:09.457Z,14.43
2019-03-21T17:49:40.409Z,14.30
2019-03-21T17:52:11.589Z,14.37
2019-03-21T17:54:42.366Z,14.37
2019-03-21T17:57:13.202Z,14.30
2019-03-21T17:59:44.269Z,14.22
2019-03-21T18:02:15.043Z,14.22
2019-03-21T18:04:45.926Z,13.91
2019-03-21T18:07:16.787Z,13.81
2019-03-21T18:09:48.577Z,13.80
2019-03-21T18:12:20.498Z,13.75
2019-03-21T18:14:51.298Z,13.61
2019-03-21T18:17:22.034Z,13.79
2019-03-21T18:19:52.860Z,13.30
2019-03-21T18:22:24.696Z,12.83
2019-03-21T18:24:55.626Z,12.66
2019-03-21T18:27:26.401Z,12.52
2019-03-21T18:29:57.252Z,12.53
2019-03-21T18:32:28.257Z,12.63
2019-03-21T18:34:59.012Z,12.64
2019-03-21T18:37:29.766Z,12.93
2019-03-21T18:40:00.839Z,13.11
2019-03-21T18:42:31.681Z,12.87
2019-03-21T18:45:02.549Z,12.95
2019-03-21T18:47:33.283Z,12.51
2019-03-21T18:50:04.338Z,12.25
2019-03-21T18:52:35.974Z,12.35
2019-03-21T18:55:08.353Z,12.62
2019-03-21T18:57:39.210Z,12.46
2019-03-21T19:00:10.763Z,12.61
2019-03-21T19:02:41.495Z,12.54
2019-03-21T19:05:12.354Z,12.13
2019-03-21T19:07:43.209Z,11.62
2019-03-21T19:10:14.377Z,11.50
2019-03-21T19:12:45.309Z,11.41
2019-03-21T19:15:16.424Z,11.45
2019-03-21T19:17:47.234Z,11.45
2019-03-21T19:20:18.402Z,11.31
2019-03-21T19:22:49.270Z,11.37
2019-03-21T19:25:22.526Z,11.13
2019-03-21T19:27:53.301Z,11.05
2019-03-21T19:30:24.225Z,10.90
2019-03-21T19:32:55.063Z,10.80
2019-03-21T19:35:25.980Z,10.77
2019-03-21T19:37:56.727Z,10.69
2019-03-21T19:40:27.565Z,10.52
2019-03-21T19:42:58.346Z,10.45
2019-03-21T19:45:29.123Z,10.46
2019-03-21T19:47:59.859Z,10.61
2019-03-21T19:50:30.686Z,10.58
2019-03-21T19:53:01.889Z,10.62
2019-03-21T19:55:32.691Z,10.31
2019-03-21T19:58:03.523Z,10.52
2019-03-21T20:00:34.382Z,10.91
2019-03-21T20:03:05.277Z,10.52
2019-03-21T20:05:36.059Z,10.15
2019-03-21T20:08:06.804Z,10.58
2019-03-21T20:10:37.809Z,10.29
2019-03-21T20:13:08.595Z,10.40
2019-03-21T20:15:39.592Z,10.44
2019-03-21T20:18:12.390Z,10.23
2019-03-21T20:20:43.407Z,10.10
2019-03-21T20:23:14.216Z,9.88
2019-03-21T20:25:45.065Z,9.88
2019-03-21T20:28:16.145Z,9.86
2019-03-21T20:30:47.006Z,9.73
2019-03-21T20:33:17.783Z,9.67
2019-03-21T20:35:48.630Z,9.72
2019-03-21T20:38:19.379Z,9.80
2019-03-21T20:40:50.335Z,9.80
2019-03-21T20:43:21.192Z,9.56
2019-03-21T20:45:54.998Z,9.42
2019-03-21T20:48:30.676Z,9.22
2019-03-21T20:51:01.499Z,9.06
2019-03-21T20:53:32.409Z,9.13
2019-03-21T20:56:03.247Z,9.17
2019-03-21T20:58:34.495Z,9.20
2019-03-21T21:01:18.925Z,9.17
2019-03-21T21:03:54.183Z,9.15
2019-03-21T21:06:24.995Z,8.95
2019-03-21T21:08:55.763Z,8.95
2019-03-21T21:11:26.804Z,8.91
2019-03-21T21:13:57.634Z,8.84
2019-03-21T21:16:28.667Z,8.74
2019-03-21T21:18:59.409Z,8.59
2019-03-21T21:21:30.386Z,8.50
2019-03-21T21:24:01.142Z,8.70
2019-03-21T21:26:32.068Z,8.76
2019-03-21T21:29:03.244Z,8.71
2019-03-21T21:31:34.230Z,8.70
2019-03-21T21:34:12.184Z,8.54
2019-03-21T21:36:46.937Z,8.49
2019-03-21T21:42:27.546Z,8.29
2019-03-21T21:44:59.733Z,8.20
2019-03-21T21:47:30.557Z,8.41
2019-03-21T21:50:02.293Z,8.54
2019-03-21T21:52:41.914Z,8.49
2019-03-21T21:55:07.278Z,8.49
2019-03-21T21:57:39.240Z,8.34
2019-03-21T22:00:15.016Z,8.22
2019-03-21T22:02:46.132Z,8.03
2019-03-21T22:05:17.105Z,8.06
2019-03-21T22:07:47.973Z,7.96
2019-03-21T22:10:18.848Z,7.94
2019-03-21T22:12:52.250Z,7.77
2019-03-21T22:15:23.175Z,7.47
2019-03-21T22:17:53.986Z,7.41
2019-03-21T22:20:24.759Z,7.63
2019-03-21T22:22:56.739Z,7.72
2019-03-21T22:25:27.535Z,7.73
2019-03-21T22:27:58.575Z,7.58
2019-03-21T22:30:29.355Z,7.49
2019-03-21T22:33:00.237Z,7.68
2019-03-21T22:35:31.048Z,7.53
2019-03-21T22:38:01.943Z,7.71
2019-03-21T22:40:32.716Z,7.55
2019-03-21T22:43:03.610Z,7.56
2019-03-21T22:45:34.381Z,7.46
2019-03-21T22:48:05.279Z,7.55
2019-03-21T22:50:36.100Z,7.38
2019-03-21T22:53:06.979Z,7.41
2019-03-21T22:55:37.885Z,7.17
2019-03-21T22:58:08.813Z,7.04
2019-03-21T23:00:44.334Z,6.89
2019-03-21T23:03:15.224Z,6.72
2019-03-21T23:05:46.076Z,6.87
2019-03-21T23:08:16.863Z,7.06
2019-03-21T23:10:47.676Z,7.02
2019-03-21T23:13:18.578Z,6.87
2019-03-21T23:15:49.363Z,6.70
2019-03-21T23:18:20.189Z,6.84
2019-03-21T23:20:50.945Z,6.78
2019-03-21T23:23:21.790Z,6.74
2019-03-21T23:25:52.665Z,6.66
2019-03-21T23:28:23.839Z,6.43
2019-03-21T23:30:54.659Z,6.37
2019-03-21T23:33:25.620Z,6.35
2019-03-21T23:35:56.456Z,6.60
2019-03-21T23:38:27.352Z,6.50
2019-03-21T23:40:58.096Z,6.39
2019-03-21T23:43:30.199Z,6.39
2019-03-21T23:46:00.911Z,6.25
2019-03-21T23:48:31.694Z,6.29
2019-03-21T23:51:02.512Z,6.15
2019-03-21T23:53:33.317Z,6.09
2019-03-21T23:56:05.490Z,5.93
2019-03-21T23:58:36.301Z,5.97
